Time;durP1;ratioP1;P1;durP2;ratioP2;P2;SDS_P1;SDS_P2;PMS_P1;PMS_P2;Temp;Humidity;BMP_temperature;BMP_pressure;BME280_temperature;BME280_humidity;BME280_pressure;Samples;Min_cycle;Max_cycle;Signal;HPM_P1;HPM_P2
2022/05/10 00:02:09;;;;;;;26.88;13.30;;;;;;;23.88;49.04;101886.34;5089561;28;20068;-53
2022/05/10 00:04:35;;;;;;;27.87;13.73;;;;;;;23.84;49.56;101883.31;5082848;28;20025;-50
2022/05/10 00:07:01;;;;;;;28.20;13.80;;;;;;;23.89;49.85;101880.59;5084834;28;20349;-53
2022/05/10 00:09:29;;;;;;;22.88;12.48;;;;;;;23.82;50.07;101870.97;5094053;28;20043;-52
2022/05/10 00:11:56;;;;;;;26.23;14.37;;;;;;;23.61;50.88;101877.09;5079210;28;20102;-52
2022/05/10 00:14:23;;;;;;;28.30;14.23;;;;;;;23.63;51.69;101872.19;5078348;28;20349;-52
2022/05/10 00:16:52;;;;;;;29.23;14.35;;;;;;;23.58;51.78;101863.97;5087767;28;20266;-51
2022/05/10 00:19:19;;;;;;;25.63;14.03;;;;;;;23.51;51.99;101865.25;5084280;28;20066;-53
2022/05/10 00:21:47;;;;;;;29.57;14.20;;;;;;;23.51;52.08;101860.59;5094505;28;20274;-53
2022/05/10 00:24:13;;;;;;;28.03;14.83;;;;;;;23.36;52.08;101857.75;5083462;28;20268;-50
2022/05/10 00:26:39;;;;;;;27.35;15.00;;;;;;;23.41;52.31;101866.81;5089644;28;20282;-51
2022/05/10 00:29:05;;;;;;;34.38;15.75;;;;;;;23.25;52.51;101863.06;5090658;28;20123;-52
2022/05/10 00:31:31;;;;;;;31.95;15.40;;;;;;;23.31;52.26;101859.34;5082571;28;20041;-51
2022/05/10 00:33:59;;;;;;;32.42;15.23;;;;;;;23.17;53.17;101863.50;5077787;28;20040;-50
2022/05/10 00:36:26;;;;;;;34.27;17.03;;;;;;;23.32;52.73;101862.88;5084511;28;20036;-53
2022/05/10 00:38:51;;;;;;;39.13;16.38;;;;;;;23.46;52.37;101861.41;5087730;28;20297;-52
2022/05/10 00:41:27;;;;;;;29.80;15.63;;;;;;;23.50;52.82;101858.94;5092065;28;20048;-53
2022/05/10 00:44:02;;;;;;;30.57;15.13;;;;;;;23.51;53.39;101855.13;5081135;28;20276;-52
2022/05/10 00:46:36;;;;;;;27.87;16.97;;;;;;;23.51;56.14;101848.88;5090763;28;20258;-49
2022/05/10 00:49:25;;;;;;;37.47;16.70;;;;;;;23.51;61.28;101846.13;5089744;28;20307;-50
2022/05/10 00:51:58;;;;;;;27.30;17.53;;;;;;;23.48;65.25;101844.75;5080868;28;20868;-50
2022/05/10 00:54:24;;;;;;;35.80;18.67;;;;;;;23.12;66.35;101838.91;5091234;28;20285;-54
2022/05/10 00:56:59;;;;;;;33.47;17.98;;;;;;;22.89;66.70;101838.09;5087714;28;20273;-50
2022/05/10 00:59:32;;;;;;;41.07;18.23;;;;;;;22.87;67.07;101834.81;5082692;28;20132;-50
2022/05/10 01:02:07;;;;;;;35.97;17.93;;;;;;;22.95;65.91;101826.16;5094066;28;20338;-49
2022/05/10 01:04:39;;;;;;;27.40;16.83;;;;;;;23.06;66.82;101830.63;5085244;28;20291;-53
2022/05/10 01:07:13;;;;;;;36.90;17.00;;;;;;;23.18;66.35;101819.63;5085712;28;20336;-55
2022/05/10 01:09:49;;;;;;;29.37;16.70;;;;;;;23.14;67.51;101821.19;5094087;28;20288;-53
2022/05/10 01:12:31;;;;;;;30.30;17.43;;;;;;;22.97;71.39;101815.81;5082457;28;20272;-54
2022/05/10 01:15:02;;;;;;;33.40;17.20;;;;;;;23.08;71.63;101824.13;5086289;28;20278;-53
2022/05/10 01:17:29;;;;;;;32.13;18.20;;;;;;;22.90;74.72;101817.94;5091346;28;20278;-52
2022/05/10 01:19:54;;;;;;;34.63;18.98;;;;;;;22.87;74.83;101813.00;5080622;28;20273;-51
2022/05/10 01:22:42;;;;;;;32.33;18.65;;;;;;;22.90;74.76;101823.38;5091380;28;20139;-50
2022/05/10 01:25:14;;;;;;;31.30;17.10;;;;;;;23.02;74.24;101815.88;5089591;28;20052;-53
2022/05/10 01:28:01;;;;;;;36.43;19.50;;;;;;;22.91;75.35;101800.50;5080356;28;20361;-52
2022/05/10 01:30:31;;;;;;;34.42;18.42;;;;;;;22.94;75.50;101794.53;5090646;28;20277;-51
2022/05/10 01:35:52;;;;;;;33.40;19.00;;;;;;;22.61;74.79;101788.16;5080153;28;20294;-51
2022/05/10 01:38:23;;;;;;;36.37;18.43;;;;;;;22.86;71.42;101778.63;5091650;28;20273;-52
2022/05/10 01:40:53;;;;;;;35.70;19.57;;;;;;;22.81;70.70;101782.09;5086574;28;20299;-49
2022/05/10 01:43:40;;;;;;;33.30;20.17;;;;;;;22.75;70.04;101778.50;5082947;28;20285;-52
2022/05/10 01:46:28;;;;;;;31.23;17.90;;;;;;;22.46;71.29;101789.59;5063994;28;20270;-52
2022/05/10 01:49:04;;;;;;;40.70;18.63;;;;;;;22.44;73.04;101785.44;5085912;28;20270;-55
2022/05/10 01:51:43;;;;;;;38.80;19.93;;;;;;;22.18;75.74;101785.94;5091768;28;20301;-52
2022/05/10 01:54:44;;;;;;;31.70;18.47;;;;;;;22.36;74.91;101778.50;5060803;28;20289;-54
2022/05/10 01:57:13;;;;;;;52.37;20.37;;;;;;;22.45;74.88;101774.28;5076684;28;20764;-48
2022/05/10 01:59:47;;;;;;;37.10;19.03;;;;;;;22.56;74.15;101774.44;5093166;28;20276;-52
2022/05/10 02:02:15;;;;;;;39.30;19.97;;;;;;;22.53;73.53;101774.94;5065462;28;20272;-52
2022/05/10 02:04:45;;;;;;;38.07;19.17;;;;;;;22.25;75.80;101763.94;5088016;28;20258;-53
2022/05/10 02:07:18;;;;;;;35.93;19.27;;;;;;;22.15;79.89;101766.53;5088732;28;20260;-54
2022/05/10 02:09:59;;;;;;;40.97;21.17;;;;;;;21.98;83.06;101761.13;5079672;28;20285;-51
2022/05/10 02:12:39;;;;;;;38.13;19.67;;;;;;;22.18;77.55;101758.69;5089930;28;20262;-51
2022/05/10 02:15:17;;;;;;;36.83;18.90;;;;;;;21.75;78.75;101752.06;5087827;28;20292;-53
2022/05/10 02:17:50;;;;;;;29.60;18.00;;;;;;;21.76;79.22;101748.28;5079418;28;20262;-51
2022/05/10 02:20:41;;;;;;;38.53;18.50;;;;;;;21.84;78.04;101747.84;5091114;28;20266;-51
2022/05/10 02:23:27;;;;;;;38.27;17.67;;;;;;;21.51;79.50;101743.22;5088080;28;20270;-53
2022/05/10 02:26:01;;;;;;;30.90;19.17;;;;;;;21.61;78.42;101744.22;5079547;28;20284;-58
2022/05/10 02:28:45;;;;;;;37.37;19.90;;;;;;;21.87;76.25;101741.91;5089453;28;20295;-54
2022/05/10 02:31:19;;;;;;;33.87;18.73;;;;;;;22.07;74.76;101743.25;5088501;28;20299;-53
2022/05/10 02:33:48;;;;;;;42.13;19.60;;;;;;;22.23;73.55;101735.31;5079129;28;20277;-50
2022/05/10 02:36:14;;;;;;;42.87;20.03;;;;;;;22.16;74.14;101728.16;5091487;28;20328;-53
2022/05/10 02:38:40;;;;;;;33.28;18.77;;;;;;;23.02;69.82;101731.31;5083824;28;20277;-53
2022/05/10 02:41:19;;;;;;;33.70;18.90;;;;;;;22.38;71.98;101732.78;5084370;28;20097;-54
2022/05/10 02:44:04;;;;;;;31.97;18.67;;;;;;;22.15;75.85;101731.13;5092428;28;20040;-50
2022/05/10 02:46:29;;;;;;;36.87;19.53;;;;;;;22.37;75.08;101725.66;5082255;28;20265;-56
2022/05/10 02:48:55;;;;;;;36.17;19.02;;;;;;;22.33;73.60;101729.97;5085627;28;20281;-54
2022/05/10 02:51:20;;;;;;;34.80;18.80;;;;;;;22.45;72.44;101730.69;5088996;28;20044;-52
2022/05/10 02:53:47;;;;;;;35.47;18.85;;;;;;;22.47;71.43;101725.84;5077866;28;20045;-55
2022/05/10 02:56:16;;;;;;;35.20;19.23;;;;;;;22.57;70.52;101722.41;5091117;28;20092;-50
2022/05/10 02:58:49;;;;;;;36.63;19.70;;;;;;;22.54;72.74;101720.19;5083383;28;20272;-51
2022/05/10 03:01:38;;;;;;;45.63;19.13;;;;;;;22.47;75.31;101728.56;5082605;28;20274;-55
2022/05/10 03:04:06;;;;;;;34.13;20.47;;;;;;;22.33;77.12;101716.34;5091660;28;20610;-54
2022/05/10 03:06:32;;;;;;;41.17;19.50;;;;;;;22.73;74.17;101714.41;5082087;28;20304;-55
2022/05/10 03:08:59;;;;;;;40.10;19.55;;;;;;;22.41;74.66;101715.09;5084781;28;20289;-55
2022/05/10 03:11:24;;;;;;;;;;;;;;;22.67;71.08;101705.34;5089333;28;20036;-55
2022/05/10 03:13:51;;;;;;;38.03;19.50;;;;;;;22.48;72.40;101711.13;5078152;28;19913;-55
2022/05/10 03:16:17;;;;;;;36.40;18.25;;;;;;;22.52;73.15;101708.72;5090370;28;20036;-53
2022/05/10 03:18:44;;;;;;;35.03;19.07;;;;;;;22.53;74.20;101704.09;5074948;28;20040;-53
2022/05/10 03:21:10;;;;;;;35.53;20.33;;;;;;;22.38;74.04;101705.53;5087014;28;20051;-50
2022/05/10 03:23:35;;;;;;;38.63;20.35;;;;;;;22.31;75.31;101696.72;5081941;28;20356;-56
2022/05/10 03:26:01;;;;;;;37.28;19.70;;;;;;;22.11;76.47;101691.84;5092440;28;20065;-54
2022/05/10 03:28:35;;;;;;;43.20;20.23;;;;;;;21.88;78.72;101694.53;5081870;28;20060;-52
2022/05/10 03:31:01;;;;;;;36.27;19.37;;;;;;;21.73;82.04;101692.44;5084011;28;20293;-54
2022/05/10 03:33:26;;;;;;;38.75;21.45;;;;;;;21.78;81.15;101688.97;5088879;28;20032;-54
2022/05/10 03:35:52;;;;;;;41.07;22.90;;;;;;;21.50;83.35;101677.09;5076583;28;20100;-53
2022/05/10 03:38:18;;;;;;;37.78;21.20;;;;;;;21.44;83.32;101678.06;5079427;28;20103;-55
2022/05/10 03:40:45;;;;;;;35.65;21.45;;;;;;;21.77;79.85;101692.75;5085988;28;20036;-54
2022/05/10 03:43:11;;;;;;;40.30;20.90;;;;;;;21.39;82.42;101680.72;5086485;28;20041;-50
2022/05/10 03:45:37;;;;;;;41.00;20.48;;;;;;;21.39;82.96;101681.56;5078792;28;20296;-52
2022/05/10 03:48:03;;;;;;;36.25;20.45;;;;;;;21.34;83.24;101682.28;5091115;28;20056;-54
2022/05/10 03:50:29;;;;;;;35.47;20.63;;;;;;;21.25;84.78;101674.78;5080465;28;20056;-53
2022/05/10 03:52:55;;;;;;;36.05;20.10;;;;;;;21.37;84.95;101677.44;5084519;28;20287;-50
2022/05/10 03:55:24;;;;;;;42.78;20.80;;;;;;;21.45;83.70;101672.41;5087680;28;20044;-52
2022/05/10 03:57:52;;;;;;;37.83;20.03;;;;;;;21.44;84.56;101678.91;5077055;28;20036;-54
2022/05/10 04:00:27;;;;;;;37.93;20.87;;;;;;;21.51;82.86;101667.03;5079018;28;20265;-52
2022/05/10 04:02:58;;;;;;;33.00;19.23;;;;;;;21.57;79.17;101676.94;5084040;28;20288;-53
2022/05/10 04:05:25;;;;;;;36.60;19.90;;;;;;;21.62;77.58;101669.66;5087862;28;20262;-52
2022/05/10 04:07:52;;;;;;;34.20;20.30;;;;;;;21.90;75.42;101662.44;5077549;28;20274;-51
2022/05/10 04:10:20;;;;;;;39.40;19.67;;;;;;;21.90;75.32;101664.34;5089672;28;20262;-53
2022/05/10 04:12:46;;;;;;;40.23;18.73;;;;;;;21.82;74.06;101673.78;5082637;28;20281;-51
2022/05/10 04:15:15;;;;;;;35.92;19.65;;;;;;;21.97;73.88;101664.16;5071993;28;20293;-52
2022/05/10 04:17:44;;;;;;;36.50;19.00;;;;;;;22.39;72.15;101666.31;5072681;28;20040;-54
2022/05/10 04:20:12;;;;;;;34.73;19.33;;;;;;;22.22;69.87;101671.00;5070483;28;20273;-54
2022/05/10 04:22:37;;;;;;;37.70;18.30;;;;;;;22.18;70.91;101660.63;5074893;28;20288;-51
2022/05/10 04:25:03;;;;;;;37.47;18.90;;;;;;;22.22;70.35;101660.13;5072436;28;20337;-52
2022/05/10 04:27:29;;;;;;;34.65;19.20;;;;;;;21.90;72.14;101661.63;5076277;28;20093;-53
2022/05/10 04:29:54;;;;;;;33.75;19.58;;;;;;;22.31;70.37;101664.88;5071834;28;20047;-52
2022/05/10 04:32:20;;;;;;;50.70;19.05;;;;;;;21.66;74.44;101659.13;5089370;28;20033;-53
2022/05/10 04:34:46;;;;;;;36.87;18.17;;;;;;;21.99;71.80;101651.94;5082300;28;20044;-50
2022/05/10 04:37:11;;;;;;;32.15;17.77;;;;;;;22.61;69.62;101654.59;5082139;28;20040;-54
2022/05/10 04:42:22;;;;;;;33.57;18.40;;;;;;;21.60;73.84;101654.66;5063160;28;20052;-52
2022/05/10 04:44:48;;;;;;;38.00;18.75;;;;;;;21.90;70.91;101654.25;5085583;28;20277;-53
2022/05/10 04:47:13;;;;;;;32.10;18.13;;;;;;;21.75;70.98;101659.53;5085981;28;20103;-49
2022/05/10 04:49:38;;;;;;;42.57;19.10;;;;;;;21.63;71.48;101654.16;5078432;28;20036;-51
2022/05/10 04:52:05;;;;;;;31.70;16.77;;;;;;;21.88;70.72;101650.16;5091724;28;20068;-51
2022/05/10 04:54:30;;;;;;;33.00;15.88;;;;;;;21.46;72.52;101656.91;5083732;28;20040;-52
2022/05/10 04:56:56;;;;;;;30.27;16.90;;;;;;;21.88;70.91;101650.16;5088237;28;20036;-50
2022/05/10 04:59:21;;;;;;;34.03;16.50;;;;;;;21.94;69.22;101648.34;5090690;28;20102;-53
2022/05/10 05:01:47;;;;;;;28.45;17.00;;;;;;;22.11;67.31;101653.72;5080818;28;20040;-52
2022/05/10 05:04:12;;;;;;;29.17;17.20;;;;;;;22.34;66.02;101647.16;5094261;28;20033;-49
2022/05/10 05:06:40;;;;;;;30.48;16.95;;;;;;;22.28;66.23;101649.03;5084768;28;20040;-48
2022/05/10 05:09:09;;;;;;;29.60;16.07;;;;;;;22.25;66.98;101648.69;5086798;28;20048;-52
2022/05/10 05:11:35;;;;;;;33.97;17.67;;;;;;;22.48;65.72;101653.91;5092205;28;20288;-51
2022/05/10 05:14:01;;;;;;;29.85;16.70;;;;;;;22.36;66.15;101655.91;5080351;28;20316;-51
2022/05/10 05:16:26;;;;;;;34.85;17.45;;;;;;;22.45;65.61;101651.66;5091710;28;20036;-47
2022/05/10 05:18:52;;;;;;;30.80;16.33;;;;;;;22.83;63.34;101650.94;5077157;28;20045;-50
2022/05/10 05:21:17;;;;;;;29.27;15.83;;;;;;;22.59;65.07;101649.38;5089418;28;20036;-53
2022/05/10 05:23:44;;;;;;;25.85;16.02;;;;;;;22.87;63.52;101652.09;5081247;28;20083;-49
2022/05/10 05:26:10;;;;;;;30.57;15.80;;;;;;;22.71;64.13;101657.41;5093705;28;20033;-52
2022/05/10 05:28:36;;;;;;;30.27;16.35;;;;;;;22.57;63.65;101645.25;5083655;28;20277;-50
2022/05/10 05:31:02;;;;;;;34.53;17.23;;;;;;;22.66;63.18;101649.19;5086997;28;20059;-52
2022/05/10 05:33:29;;;;;;;31.50;16.37;;;;;;;22.62;63.63;101648.88;5083379;28;20040;-54
2022/05/10 05:35:56;;;;;;;37.85;16.83;;;;;;;22.56;63.84;101643.59;5077076;28;20369;-54
2022/05/10 05:38:24;;;;;;;34.37;15.93;;;;;;;22.66;62.92;101649.19;5076599;28;20088;-53
2022/05/10 05:40:49;;;;;;;37.70;17.17;;;;;;;22.32;64.24;101657.50;5071544;28;20347;-50
2022/05/10 05:43:18;;;;;;;27.42;16.35;;;;;;;23.01;61.76;101645.13;5076013;28;20265;-51
2022/05/10 05:45:43;;;;;;;26.00;15.73;;;;;;;22.75;63.30;101644.91;5073752;28;20032;-50
2022/05/10 05:48:10;;;;;;;33.95;17.60;;;;;;;22.40;64.75;101635.25;5077032;28;20273;-50
2022/05/10 05:50:35;;;;;;;30.17;16.83;;;;;;;22.56;64.34;101639.00;5062810;28;20061;-49
2022/05/10 05:53:02;;;;;;;37.13;16.88;;;;;;;22.35;66.28;101627.84;5065215;28;20346;-53
2022/05/10 05:55:27;;;;;;;33.35;17.15;;;;;;;22.39;66.95;101628.16;5068136;28;20036;-51
2022/05/10 05:57:52;;;;;;;29.58;17.17;;;;;;;22.46;66.80;101639.72;5072543;28;20052;-49
2022/05/10 06:00:21;;;;;;;30.65;17.83;;;;;;;22.34;67.08;101633.53;5068134;28;20060;-52
2022/05/10 06:02:50;;;;;;;34.17;17.47;;;;;;;22.60;66.87;101631.09;5075875;28;20039;-51
2022/05/10 06:05:16;;;;;;;42.43;18.67;;;;;;;22.60;67.33;101634.66;5075500;28;20273;-52
2022/05/10 06:07:42;;;;;;;40.47;18.48;;;;;;;22.93;65.93;101637.41;5072127;28;20271;-52
2022/05/10 06:10:09;;;;;;;39.72;18.15;;;;;;;22.90;65.74;101633.28;5075059;28;20040;-54
2022/05/10 06:12:35;;;;;;;27.90;17.77;;;;;;;23.33;64.76;101629.84;5075733;28;20052;-54
2022/05/10 06:15:09;;;;;;;31.93;18.70;;;;;;;23.26;64.92;101632.78;5075301;28;20278;-54
2022/05/10 06:17:37;;;;;;;32.00;18.57;;;;;;;23.43;64.48;101623.63;5072974;28;20279;-53
2022/05/10 06:20:06;;;;;;;38.10;19.13;;;;;;;23.22;64.75;101628.09;5073698;28;20321;-55
2022/05/10 06:22:33;;;;;;;38.83;17.53;;;;;;;23.95;61.98;101627.44;5090041;28;20262;-54
2022/05/10 06:25:03;;;;;;;28.27;17.30;;;;;;;23.70;62.85;101628.97;5064410;28;20089;-52
2022/05/10 06:27:29;;;;;;;34.30;16.87;;;;;;;23.73;62.14;101633.91;5069272;28;20274;-55
2022/05/10 06:29:54;;;;;;;29.10;16.43;;;;;;;23.79;61.79;101632.03;5082951;28;20289;-51
2022/05/10 06:32:22;;;;;;;31.15;17.45;;;;;;;23.54;62.71;101625.34;5064864;28;20029;-53
2022/05/10 06:34:49;;;;;;;33.33;16.07;;;;;;;23.86;62.16;101627.13;5071238;28;20071;-51
2022/05/10 06:40:05;;;;;;;28.87;15.67;;;;;;;23.48;65.78;101621.75;5074314;28;20293;-52
2022/05/10 06:42:31;;;;;;;30.97;16.33;;;;;;;23.89;63.91;101628.50;5079566;28;20281;-55
2022/05/10 06:44:57;;;;;;;28.27;14.47;;;;;;;23.60;65.87;101618.81;5087032;28;20326;-53
2022/05/10 06:47:23;;;;;;;28.67;15.90;;;;;;;23.95;63.80;101619.25;5086452;28;20372;-54
2022/05/10 06:49:48;;;;;;;26.90;15.18;;;;;;;24.11;64.21;101617.41;5079725;28;20064;-55
2022/05/10 06:52:18;;;;;;;28.50;17.00;;;;;;;24.09;64.09;101613.28;5090720;28;20051;-53
2022/05/10 06:54:44;;;;;;;29.50;15.70;;;;;;;24.15;63.70;101613.06;5080233;28;20052;-52
2022/05/10 06:57:10;;;;;;;29.10;16.17;;;;;;;24.56;61.76;101611.50;5084997;28;20071;-51
2022/05/10 06:59:35;;;;;;;27.73;15.95;;;;;;;24.59;62.27;101609.06;5078740;28;20041;-53
2022/05/10 07:02:01;;;;;;;27.00;15.70;;;;;;;24.41;62.51;101609.56;5074448;28;20037;-53
2022/05/10 07:04:27;;;;;;;29.13;15.40;;;;;;;24.65;62.81;101600.84;5091110;28;20031;-53
2022/05/10 07:06:52;;;;;;;30.17;17.40;;;;;;;24.89;61.21;101603.88;5081018;28;20045;-53
2022/05/10 07:09:18;;;;;;;31.00;17.00;;;;;;;24.72;61.42;101591.28;5083845;28;20033;-52
2022/05/10 07:11:44;;;;;;;;;;;;;;;24.75;61.43;101588.03;5088691;28;20032;-55
2022/05/10 07:14:09;;;;;;;30.27;15.53;;;;;;;24.90;61.29;101583.63;5077220;28;20003;-54
2022/05/10 07:16:35;;;;;;;23.67;15.77;;;;;;;25.09;60.72;101594.00;5089368;28;20092;-53
2022/05/10 07:19:00;;;;;;;24.67;15.63;;;;;;;25.00;60.83;101591.84;5074596;28;20092;-54
2022/05/10 07:21:26;;;;;;;42.25;21.70;;;;;;;25.27;60.25;101581.69;5078839;28;20048;-51
2022/05/10 07:23:51;;;;;;;23.13;15.57;;;;;;;25.09;60.42;101585.81;5083871;28;20051;-52
2022/05/10 07:26:16;;;;;;;25.75;15.27;;;;;;;25.30;60.01;101583.88;5081302;28;20028;-55
2022/05/10 07:28:42;;;;;;;25.20;14.65;;;;;;;25.41;59.56;101592.88;5088398;28;20495;-53
2022/05/10 07:31:08;;;;;;;19.83;14.55;;;;;;;25.41;60.30;101581.91;5075287;28;20028;-52
2022/05/10 07:33:33;;;;;;;29.57;14.83;;;;;;;25.90;59.18;101583.94;5072496;28;20096;-51
2022/05/10 07:38:44;;;;;;;25.57;14.40;;;;;;;25.72;60.02;101577.19;5059346;28;20054;-52
2022/05/10 07:41:11;;;;;;;20.65;13.13;;;;;;;25.50;60.73;101577.53;5083299;28;20033;-54
2022/05/10 07:43:38;;;;;;;22.53;11.53;;;;;;;25.29;60.47;101585.75;5080862;28;20036;-55
2022/05/10 07:46:04;;;;;;;21.10;12.00;;;;;;;25.45;59.95;101574.78;5056368;28;20092;-52
2022/05/10 07:48:30;;;;;;;18.33;10.53;;;;;;;25.66;59.40;101582.97;5090203;28;20028;-54
2022/05/10 07:50:56;;;;;;;19.45;11.93;;;;;;;25.92;58.20;101562.56;5080302;28;20080;-52
2022/05/10 07:53:21;;;;;;;17.13;10.82;;;;;;;25.88;58.43;101569.72;5083061;28;20041;-53
2022/05/10 07:55:47;;;;;;;20.73;11.43;;;;;;;25.95;58.55;101565.81;5088146;28;20059;-55
2022/05/10 07:58:13;;;;;;;20.23;10.80;;;;;;;25.80;58.94;101561.25;5075695;28;20041;-50
2022/05/10 08:00:40;;;;;;;25.65;10.68;;;;;;;25.76;58.82;101571.94;5078778;28;20041;-52
2022/05/10 08:03:12;;;;;;;13.93;10.43;;;;;;;25.97;57.75;101572.69;5087809;28;20044;-52
2022/05/10 08:05:38;;;;;;;20.53;11.27;;;;;;;26.05;58.48;101591.25;5080369;28;20085;-54
2022/05/10 08:08:03;;;;;;;;;;;;;;;25.92;58.64;101572.69;5090241;28;20032;-52
2022/05/10 08:10:31;;;;;;;19.63;9.90;;;;;;;25.81;59.83;101565.63;5061294;28;19923;-49
2022/05/10 08:12:57;;;;;;;17.10;9.93;;;;;;;26.34;59.44;101578.78;5086670;28;20348;-53
2022/05/10 08:15:22;;;;;;;16.05;9.45;;;;;;;26.23;58.14;101563.50;5084113;28;20055;-49
2022/05/10 08:17:48;;;;;;;;;;;;;;;26.68;56.07;101568.94;5079780;28;20041;-55
2022/05/10 08:20:14;;;;;;;14.33;8.37;;;;;;;26.49;54.58;101566.88;5074449;28;19913;-53
2022/05/10 08:22:41;;;;;;;17.00;8.73;;;;;;;26.22;54.56;101576.41;5088280;28;20044;-52
2022/05/10 08:25:07;;;;;;;18.30;9.00;;;;;;;26.39;54.45;101577.91;5072945;28;20060;-48
2022/05/10 08:27:32;;;;;;;13.48;8.02;;;;;;;26.53;54.51;101572.63;5087625;28;20040;-54
2022/05/10 08:29:58;;;;;;;15.23;8.02;;;;;;;26.93;53.19;101565.16;5081406;28;20041;-49
2022/05/10 08:32:24;;;;;;;;;;;;;;;26.80;53.78;101565.81;5091897;28;20041;-52
2022/05/10 08:34:49;;;;;;;14.07;8.03;;;;;;;26.77;53.42;101568.03;5083219;28;19927;-53
2022/05/10 08:37:15;;;;;;;13.73;7.97;;;;;;;27.16;53.90;101559.97;5087258;28;20379;-53
2022/05/10 08:39:41;;;;;;;13.13;8.63;;;;;;;27.05;53.87;101568.34;5077300;28;20036;-52
2022/05/10 08:42:21;;;;;;;14.38;9.75;;;;;;;26.64;54.00;101557.72;5093444;28;20488;-49
2022/05/10 08:44:53;;;;;;;14.73;8.23;;;;;;;26.93;54.56;101562.41;5082939;28;20036;-54
2022/05/10 08:47:18;;;;;;;16.90;8.70;;;;;;;27.22;52.82;101553.34;5087246;28;20041;-50
2022/05/10 08:49:57;;;;;;;14.20;8.15;;;;;;;27.07;52.35;101559.00;5090409;28;20028;-53
2022/05/10 08:52:32;;;;;;;14.07;8.97;;;;;;;27.24;52.07;101550.28;5064473;28;20045;-54
2022/05/10 08:54:58;;;;;;;13.47;8.67;;;;;;;27.46;50.25;101547.03;5089910;28;20052;-54
2022/05/10 08:57:27;;;;;;;12.93;7.60;;;;;;;27.13;51.01;101553.16;5076575;28;20088;-54
2022/05/10 09:00:23;;;;;;;12.07;8.83;;;;;;;27.13;52.21;101535.84;5091583;28;20074;-54
2022/05/10 09:02:54;;;;;;;14.60;8.27;;;;;;;26.93;51.82;101542.38;5069474;28;20050;-53
2022/05/10 09:05:38;;;;;;;16.90;8.13;;;;;;;27.48;51.07;101548.34;5086347;28;20044;-53
2022/05/10 09:08:15;;;;;;;22.27;9.10;;;;;;;27.31;51.33;101537.84;5092471;28;20032;-51
2022/05/10 09:11:01;;;;;;;14.57;8.77;;;;;;;27.33;50.44;101545.78;5065198;28;20032;-48
2022/05/10 09:13:27;;;;;;;22.13;8.67;;;;;;;27.72;49.99;101543.97;5074415;28;20112;-52
2022/05/10 09:16:08;;;;;;;15.00;8.68;;;;;;;27.83;48.96;101539.97;5075900;28;20040;-54
2022/05/10 09:19:01;;;;;;;15.27;7.93;;;;;;;28.02;47.40;101548.19;5058350;28;20044;-53
2022/05/10 09:21:37;;;;;;;12.63;7.90;;;;;;;28.41;46.46;101543.53;5074885;28;20048;-52
2022/05/10 09:24:45;;;;;;;14.23;7.53;;;;;;;28.88;45.03;101554.56;5092484;28;20063;-54
2022/05/10 09:27:10;;;;;;;12.20;7.27;;;;;;;28.79;45.68;101539.91;5053713;28;20045;-54
2022/05/10 09:29:44;;;;;;;14.03;7.70;;;;;;;28.71;45.75;101538.63;5080342;28;20079;-55
2022/05/10 09:35:07;;;;;;;10.37;6.83;;;;;;;28.95;43.66;101536.84;5073675;28;20044;-50
2022/05/10 09:37:41;;;;;;;8.10;6.10;;;;;;;29.01;44.13;101530.94;5075746;28;20104;-54
2022/05/10 09:40:10;;;;;;;15.53;8.03;;;;;;;29.37;43.11;101542.38;5060188;28;20413;-53
2022/05/10 09:42:44;;;;;;;12.47;6.63;;;;;;;29.88;41.42;101522.00;5069149;28;20075;-51
2022/05/10 09:45:26;;;;;;;19.27;7.10;;;;;;;30.42;41.00;101509.44;5064779;28;20025;-51
2022/05/10 09:48:09;;;;;;;16.37;6.30;;;;;;;30.94;40.19;101514.44;5063851;28;20029;-51
2022/05/10 09:50:40;;;;;;;17.23;7.07;;;;;;;31.00;38.87;101518.69;5071556;28;20095;-54
2022/05/10 09:53:11;;;;;;;12.03;6.10;;;;;;;30.96;39.59;101511.34;5082895;28;20033;-51
2022/05/10 09:55:39;;;;;;;24.90;8.07;;;;;;;31.35;38.25;101511.66;5069264;28;20108;-52
2022/05/10 09:58:36;;;;;;;40.87;7.80;;;;;;;31.61;38.22;101517.22;5091768;28;20028;-49
2022/05/10 10:01:07;;;;;;;16.92;8.50;;;;;;;32.82;36.09;101516.63;5070087;28;20051;-48
2022/05/10 10:03:37;;;;;;;18.52;7.57;;;;;;;32.39;35.68;101523.94;5083994;28;20108;-48
2022/05/10 10:06:24;;;;;;;12.07;5.65;;;;;;;32.36;36.23;101530.13;5075359;28;20040;-52
2022/05/10 10:08:57;;;;;;;13.48;6.47;;;;;;;31.45;37.07;101511.38;5068180;28;20120;-52
2022/05/10 10:11:24;;;;;;;12.35;6.32;;;;;;;31.11;36.85;101510.09;5085099;28;20048;-51
2022/05/10 10:13:59;;;;;;;13.27;5.53;;;;;;;32.11;35.71;101515.97;5089534;28;20083;-53
2022/05/10 10:16:30;;;;;;;19.92;5.85;;;;;;;32.49;34.84;101503.41;5076515;28;20060;-51
2022/05/10 10:19:01;;;;;;;13.75;4.85;;;;;;;31.10;34.47;101536.91;5075113;28;20037;-49
2022/05/10 10:21:43;;;;;;;22.40;5.40;;;;;;;31.67;33.76;101534.47;5075704;28;20057;-50
2022/05/10 10:24:17;;;;;;;10.73;4.43;;;;;;;32.50;33.64;101512.50;5075580;28;20127;-53
2022/05/10 10:26:51;;;;;;;25.05;5.13;;;;;;;32.39;33.40;101515.63;5064567;28;20032;-54
2022/05/10 10:29:26;;;;;;;9.70;4.50;;;;;;;32.93;32.35;101511.56;5086274;28;20029;-53
2022/05/10 10:32:00;;;;;;;11.57;4.60;;;;;;;32.53;32.49;101515.44;5089805;28;20032;-53
2022/05/10 10:34:43;;;;;;;15.48;4.60;;;;;;;32.93;32.57;101511.56;5078310;28;20096;-50
2022/05/10 10:37:20;;;;;;;18.92;5.72;;;;;;;32.46;33.21;101499.31;5087121;28;20044;-51
2022/05/10 10:39:51;;;;;;;14.77;5.20;;;;;;;31.70;33.35;101506.19;5075166;28;20124;-49
2022/05/10 10:42:34;;;;;;;18.13;5.30;;;;;;;32.45;32.71;101503.22;5091712;28;20403;-52
2022/05/10 10:45:03;;;;;;;8.57;4.95;;;;;;;32.67;33.13;101500.56;5081865;28;20060;-53
2022/05/10 10:47:38;;;;;;;27.85;6.15;;;;;;;31.51;33.98;101506.50;5079438;28;20037;-56
2022/05/10 10:50:21;;;;;;;14.30;5.85;;;;;;;31.53;34.90;101491.22;5075747;28;20044;-53
2022/05/10 10:52:49;;;;;;;18.27;5.97;;;;;;;31.07;35.03;101487.03;5075333;28;20037;-53
2022/05/10 10:55:18;;;;;;;13.50;6.30;;;;;;;31.33;34.90;101479.63;5074037;28;20036;-54
2022/05/10 10:58:11;;;;;;;13.17;5.13;;;;;;;32.12;34.30;101481.63;5081821;28;20071;-54
2022/05/10 11:00:54;;;;;;;11.33;4.90;;;;;;;32.00;33.86;101487.84;5078703;28;20057;-53
2022/05/10 11:04:01;;;;;;;8.67;4.43;;;;;;;31.25;33.87;101493.44;5075872;28;20040;-52
2022/05/10 11:06:28;;;;;;;11.10;4.90;;;;;;;31.81;32.89;101477.09;5053383;28;20033;-51
2022/05/10 11:09:06;;;;;;;12.73;5.03;;;;;;;33.06;31.95;101475.66;5072978;28;20044;-51
2022/05/10 11:11:40;;;;;;;12.15;4.63;;;;;;;33.43;30.92;101482.28;5072965;28;20029;-54
2022/05/10 11:14:24;;;;;;;10.00;4.88;;;;;;;32.58;31.35;101465.41;5075066;28;20044;-52
2022/05/10 11:17:09;;;;;;;13.55;5.57;;;;;;;31.80;32.38;101452.56;5067558;28;20101;-50
2022/05/10 11:19:49;;;;;;;9.05;4.90;;;;;;;32.05;32.65;101453.66;5070478;28;20044;-53
2022/05/10 11:22:40;;;;;;;8.43;5.03;;;;;;;32.03;32.44;101454.00;5090598;28;20032;-55
2022/05/10 11:25:15;;;;;;;15.77;7.13;;;;;;;31.80;32.89;101464.41;5081442;28;20024;-56
2022/05/10 11:28:17;;;;;;;9.07;5.03;;;;;;;32.18;32.05;101444.34;5079837;28;20037;-55
2022/05/10 11:30:56;;;;;;;12.70;5.50;;;;;;;32.85;31.48;101454.22;5066127;28;20041;-53
2022/05/10 11:33:29;;;;;;;13.13;4.30;;;;;;;32.54;32.12;101455.34;5083557;28;20032;-51
2022/05/10 11:36:01;;;;;;;14.82;5.15;;;;;;;32.34;31.82;101452.16;5079023;28;20063;-54
2022/05/10 11:38:31;;;;;;;10.63;4.72;;;;;;;32.41;31.59;101441.38;5073470;28;20044;-54
2022/05/10 11:41:13;;;;;;;13.20;4.97;;;;;;;32.85;31.16;101443.94;5070607;28;20037;-52
2022/05/10 11:44:14;;;;;;;16.38;4.95;;;;;;;32.86;30.24;101450.31;5071382;28;20033;-53
2022/05/10 11:47:04;;;;;;;13.27;6.22;;;;;;;31.64;31.82;101483.41;5066353;28;20055;-53